Time;durP1;ratioP1;P1;durP2;ratioP2;P2;SDS_P1;SDS_P2;PMS_P1;PMS_P2;Temp;Humidity;BMP_temperature;BMP_pressure;BME280_temperature;BME280_humidity;BME280_pressure;Samples;Min_cycle;Max_cycle;Signal;HPM_P1;HPM_P2
2021/11/20 00:01:01;;;;;;;55.80;26.65;;;6.30;99.90;;;;;;5054512;28;20467;-81
2021/11/20 00:03:27;;;;;;;52.28;26.48;;;6.30;99.90;;;;;;5054314;28;20536;-81
2021/11/20 00:05:54;;;;;;;53.17;26.67;;;6.40;99.90;;;;;;5055357;28;20467;-81
2021/11/20 00:08:21;;;;;;;54.08;26.33;;;6.40;99.90;;;;;;5055292;28;20029;-81
2021/11/20 00:10:54;;;;;;;54.50;27.50;;;6.40;99.90;;;;;;5054260;28;20025;-81
2021/11/20 00:13:21;;;;;;;58.85;28.38;;;6.40;99.90;;;;;;5055415;28;20032;-81
2021/11/20 00:15:50;;;;;;;60.22;27.05;;;6.40;99.90;;;;;;5054184;28;20029;-81
2021/11/20 00:18:17;;;;;;;55.65;25.70;;;6.40;99.90;;;;;;5055466;28;20053;-81
2021/11/20 00:20:48;;;;;;;56.85;27.63;;;6.50;99.90;;;;;;5054072;28;20021;-81
2021/11/20 00:23:18;;;;;;;56.92;27.42;;;6.50;99.90;;;;;;5054042;28;20112;-81
2021/11/20 00:25:50;;;;;;;55.30;25.15;;;6.50;99.90;;;;;;5053858;28;20418;-81
2021/11/20 00:28:28;;;;;;;58.38;25.92;;;6.50;99.90;;;;;;5053966;28;20024;-81
2021/11/20 00:30:58;;;;;;;58.30;27.13;;;6.60;99.90;;;;;;5053798;28;20378;-82
2021/11/20 00:33:30;;;;;;;60.65;28.52;;;6.50;99.90;;;;;;5053769;28;20107;-83
2021/11/20 00:35:58;;;;;;;59.60;27.58;;;6.60;99.90;;;;;;5053956;28;20530;-84
2021/11/20 00:38:26;;;;;;;56.20;27.67;;;6.60;99.90;;;;;;5053759;28;20433;-83
2021/11/20 00:41:01;;;;;;;62.58;28.73;;;6.60;99.90;;;;;;5053600;28;20036;-85
2021/11/20 00:43:28;;;;;;;60.55;28.92;;;6.60;99.90;;;;;;5050056;28;20021;-85
2021/11/20 00:45:54;;;;;;;66.28;29.08;;;6.70;99.90;;;;;;5034825;28;20040;-83
2021/11/20 00:48:22;;;;;;;64.40;29.08;;;6.70;99.90;;;;;;5034852;28;20103;-83
2021/11/20 00:50:52;;;;;;;65.55;28.23;;;6.70;99.90;;;;;;5032886;28;20545;-83
2021/11/20 00:53:18;;;;;;;89.35;41.83;;;6.70;99.90;;;;;;5033590;28;20026;-83
2021/11/20 00:55:45;;;;;;;58.15;26.63;;;6.70;99.90;;;;;;5034709;28;20083;-83
2021/11/20 00:58:11;;;;;;;56.50;26.40;;;6.70;99.90;;;;;;5034657;28;20026;-84
2021/11/20 01:00:42;;;;;;;57.42;26.42;;;6.70;99.90;;;;;;5033379;28;20053;-83
2021/11/20 01:03:08;;;;;;;55.83;26.50;;;6.70;99.90;;;;;;5033393;28;20032;-83
2021/11/20 01:05:35;;;;;;;54.28;26.83;;;6.70;99.90;;;;;;5033097;28;20049;-85
2021/11/20 01:08:01;;;;;;;63.70;26.73;;;6.70;99.90;;;;;;5034535;28;20076;-83
2021/11/20 01:10:30;;;;;;;60.88;27.23;;;6.70;99.90;;;;;;5034463;28;20432;-83
2021/11/20 01:12:57;;;;;;;59.70;26.80;;;6.70;99.90;;;;;;5033131;28;20022;-84
2021/11/20 01:15:36;;;;;;;58.15;25.02;;;6.70;99.90;;;;;;5033059;28;20487;-84
2021/11/20 01:18:03;;;;;;;57.80;25.10;;;6.70;99.90;;;;;;5034204;28;20431;-81
2021/11/20 01:20:30;;;;;;;60.20;24.90;;;6.70;99.90;;;;;;5034149;28;20021;-81
2021/11/20 01:22:56;;;;;;;59.22;24.65;;;6.70;99.90;;;;;;5033023;28;20444;-82
2021/11/20 01:25:22;;;;;;;57.10;25.85;;;6.70;99.90;;;;;;5032877;28;20030;-83
2021/11/20 01:27:48;;;;;;;59.83;25.25;;;6.80;99.90;;;;;;5032934;28;20063;-83
2021/11/20 01:30:14;;;;;;;51.45;25.10;;;6.80;99.90;;;;;;5051477;28;20056;-83
2021/11/20 01:32:40;;;;;;;58.72;26.48;;;6.80;99.90;;;;;;5053949;28;20074;-82
2021/11/20 01:35:07;;;;;;;63.70;26.55;;;6.80;99.90;;;;;;5052705;28;20025;-82
2021/11/20 01:37:35;;;;;;;60.47;25.58;;;6.80;99.90;;;;;;5053033;28;20466;-81
2021/11/20 01:40:04;;;;;;;70.88;28.38;;;6.80;99.90;;;;;;5052561;28;20051;-82
2021/11/20 01:42:31;;;;;;;62.65;26.30;;;6.80;99.90;;;;;;5054212;28;20049;-83
2021/11/20 01:45:08;;;;;;;69.75;26.38;;;6.80;99.90;;;;;;5052538;28;20025;-82
2021/11/20 01:47:36;;;;;;;74.55;25.30;;;6.80;99.90;;;;;;5052592;28;20033;-81
2021/11/20 01:50:31;;;;;;;71.18;28.55;;;6.80;99.90;;;;;;5052488;28;20082;-82
2021/11/20 01:53:02;;;;;;;70.97;27.63;;;6.80;99.90;;;;;;5052529;28;20074;-83
2021/11/20 01:55:38;;;;;;;76.95;27.58;;;6.80;99.90;;;;;;5053757;28;20475;-81
2021/11/20 01:58:23;;;;;;;66.63;26.48;;;6.80;99.90;;;;;;5052478;28;20028;-82
2021/11/20 02:01:14;;;;;;;66.13;25.13;;;6.80;99.90;;;;;;5052182;28;20359;-82
2021/11/20 02:04:01;;;;;;;52.03;23.48;;;6.90;99.90;;;;;;5052377;28;20028;-83
2021/11/20 02:06:41;;;;;;;74.25;24.58;;;6.90;99.90;;;;;;5053234;28;20049;-82
2021/11/20 02:09:13;;;;;;;64.43;24.65;;;6.90;99.90;;;;;;5053770;28;20022;-83
2021/11/20 02:12:20;;;;;;;64.82;25.10;;;6.90;99.90;;;;;;5053369;28;20112;-82
2021/11/20 02:14:47;;;;;;;59.90;22.95;;;6.90;99.90;;;;;;5015175;28;20076;-83
2021/11/20 02:17:40;;;;;;;57.90;23.65;;;6.90;99.90;;;;;;5049898;28;20433;-85
2021/11/20 02:20:17;;;;;;;66.30;23.25;;;6.90;99.90;;;;;;5052046;28;20032;-79
2021/11/20 02:22:42;;;;;;;60.25;22.00;;;6.90;99.90;;;;;;5053442;28;20040;-79
2021/11/20 02:25:11;;;;;;;57.13;22.25;;;6.90;99.90;;;;;;5052073;28;20467;-79
2021/11/20 02:27:46;;;;;;;53.33;22.35;;;6.90;99.90;;;;;;5053298;28;20025;-79
2021/11/20 02:30:26;;;;;;;49.83;21.10;;;7.00;99.90;;;;;;5053630;28;20051;-79
2021/11/20 02:32:55;;;;;;;52.30;20.53;;;7.00;99.90;;;;;;5053184;28;20057;-79
2021/11/20 02:35:33;;;;;;;45.42;19.30;;;7.00;99.90;;;;;;5052811;28;20082;-79
2021/11/20 02:37:59;;;;;;;52.58;20.38;;;7.00;99.90;;;;;;5052630;28;20037;-79
2021/11/20 02:40:26;;;;;;;39.88;18.55;;;7.00;99.90;;;;;;5053070;28;20476;-79
2021/11/20 02:42:52;;;;;;;45.55;18.52;;;7.00;99.90;;;;;;5053034;28;20033;-79
2021/11/20 02:45:28;;;;;;;33.83;16.85;;;7.00;99.90;;;;;;5051706;28;20025;-79
2021/11/20 02:47:55;;;;;;;38.83;17.73;;;7.10;99.90;;;;;;5053028;28;20021;-79
2021/11/20 02:50:38;;;;;;;34.83;18.38;;;7.10;99.90;;;;;;5051516;28;20038;-79
2021/11/20 02:53:10;;;;;;;28.15;15.95;;;7.10;99.90;;;;;;5053023;28;20025;-79
2021/11/20 02:55:42;;;;;;;40.90;18.92;;;7.20;99.90;;;;;;5052954;28;20108;-79
2021/11/20 02:58:08;;;;;;;38.33;18.42;;;7.20;99.90;;;;;;5052765;28;20071;-79
2021/11/20 03:00:34;;;;;;;29.48;16.73;;;7.20;99.90;;;;;;5051558;28;20112;-80
2021/11/20 03:03:00;;;;;;;25.65;15.20;;;7.20;99.90;;;;;;5051492;28;20079;-79
2021/11/20 03:05:26;;;;;;;38.78;20.63;;;7.30;99.90;;;;;;5051307;28;20049;-79
2021/11/20 03:07:52;;;;;;;43.67;22.38;;;7.30;99.90;;;;;;5051652;28;20025;-79
2021/11/20 03:10:18;;;;;;;55.67;31.77;;;7.30;99.90;;;;;;5051485;28;20028;-79
2021/11/20 03:12:44;;;;;;;34.10;18.45;;;7.40;99.90;;;;;;5053357;28;20135;-79
2021/11/20 03:15:10;;;;;;;31.13;16.52;;;7.40;99.90;;;;;;5055088;28;20029;-80
2021/11/20 03:17:36;;;;;;;33.17;16.77;;;7.40;99.90;;;;;;5055118;28;20068;-79
2021/11/20 03:20:05;;;;;;;27.42;16.35;;;7.40;99.90;;;;;;5055022;28;20533;-79
2021/11/20 03:22:36;;;;;;;24.05;13.80;;;7.50;99.90;;;;;;5055006;28;20471;-80
2021/11/20 03:25:02;;;;;;;25.95;14.38;;;7.50;99.90;;;;;;5054794;28;20029;-79
2021/11/20 03:27:28;;;;;;;31.00;14.77;;;7.60;99.90;;;;;;5054918;28;20070;-80
2021/11/20 03:29:54;;;;;;;29.00;15.48;;;7.60;99.90;;;;;;5056365;28;20021;-79
2021/11/20 03:32:20;;;;;;;26.65;15.02;;;7.60;99.90;;;;;;5056197;28;20028;-79
2021/11/20 03:34:46;;;;;;;28.52;15.70;;;7.70;99.90;;;;;;5056014;28;20479;-79
2021/11/20 03:37:13;;;;;;;27.67;15.65;;;7.70;99.90;;;;;;5054765;28;20025;-79
2021/11/20 03:39:40;;;;;;;30.17;15.23;;;7.70;99.90;;;;;;5054741;28;20025;-79
2021/11/20 03:42:06;;;;;;;26.13;15.50;;;7.80;99.90;;;;;;5055669;28;20471;-79
2021/11/20 03:44:32;;;;;;;26.17;15.48;;;7.80;99.90;;;;;;5054662;28;20029;-78
2021/11/20 03:46:58;;;;;;;32.15;16.63;;;7.80;99.90;;;;;;5055644;28;20031;-80
2021/11/20 03:49:24;;;;;;;34.83;16.65;;;7.80;99.90;;;;;;5054417;28;20021;-82
2021/11/20 03:51:50;;;;;;;28.45;16.25;;;7.80;99.90;;;;;;5054431;28;20475;-79
2021/11/20 03:54:16;;;;;;;31.25;17.08;;;7.80;99.90;;;;;;5055873;28;20021;-81
2021/11/20 03:56:42;;;;;;;31.42;15.95;;;7.80;99.90;;;;;;5055567;28;20033;-80
2021/11/20 03:59:08;;;;;;;31.65;17.20;;;7.90;99.90;;;;;;5055591;28;20024;-79
2021/11/20 04:01:34;;;;;;;35.30;17.83;;;7.90;99.90;;;;;;5055479;28;20021;-79
2021/11/20 04:04:01;;;;;;;31.58;16.17;;;7.80;99.90;;;;;;5054246;28;20356;-79
2021/11/20 04:06:27;;;;;;;26.92;15.55;;;7.90;99.90;;;;;;5053897;28;20045;-81
2021/11/20 04:08:53;;;;;;;27.95;16.25;;;7.90;99.90;;;;;;5054137;28;20025;-79
2021/11/20 04:11:29;;;;;;;31.70;18.38;;;8.00;99.90;;;;;;5055387;28;20021;-80
2021/11/20 04:13:55;;;;;;;52.28;29.23;;;8.00;99.90;;;;;;5055315;28;20131;-79
2021/11/20 04:16:23;;;;;;;31.92;18.75;;;8.10;99.90;;;;;;5055143;28;20060;-79
2021/11/20 04:18:49;;;;;;;34.65;20.50;;;8.10;99.90;;;;;;5055262;28;20107;-79
2021/11/20 04:21:16;;;;;;;30.45;17.42;;;8.10;99.90;;;;;;5053849;28;20111;-81
2021/11/20 04:23:45;;;;;;;31.50;17.13;;;8.10;99.90;;;;;;5055287;28;20036;-81
2021/11/20 04:26:13;;;;;;;30.27;16.75;;;8.20;99.90;;;;;;5053791;28;20033;-81
2021/11/20 04:28:39;;;;;;;24.10;15.95;;;8.20;99.90;;;;;;5055098;28;20487;-81
2021/11/20 04:31:05;;;;;;;27.02;14.95;;;8.30;99.90;;;;;;5053646;28;20021;-81
2021/11/20 04:33:31;;;;;;;26.73;14.75;;;8.40;99.90;;;;;;5053605;28;20094;-81
2021/11/20 04:35:57;;;;;;;26.40;14.68;;;8.50;99.90;;;;;;5053619;28;20021;-81
2021/11/20 04:38:23;;;;;;;23.85;14.07;;;8.50;99.90;;;;;;5053701;28;20047;-81
2021/11/20 04:40:50;;;;;;;19.25;12.45;;;8.60;99.90;;;;;;5053738;28;20081;-82
2021/11/20 04:43:16;;;;;;;19.88;12.55;;;8.70;99.90;;;;;;5053728;28;20025;-81
2021/11/20 04:45:41;;;;;;;25.50;12.43;;;8.80;99.90;;;;;;5053573;28;20024;-82
2021/11/20 04:48:09;;;;;;;20.30;13.10;;;8.80;99.90;;;;;;5053582;28;20033;-82
2021/11/20 04:50:35;;;;;;;22.33;12.80;;;8.80;99.90;;;;;;5053506;28;20052;-82
2021/11/20 04:53:01;;;;;;;22.65;13.77;;;8.80;99.90;;;;;;5053509;28;20025;-82
2021/11/20 04:55:28;;;;;;;23.52;13.85;;;8.80;99.90;;;;;;5053419;28;20036;-82
2021/11/20 04:57:53;;;;;;;22.63;13.65;;;8.80;99.90;;;;;;5053350;28;20033;-78
2021/11/20 05:00:27;;;;;;;24.65;15.20;;;8.80;99.90;;;;;;5052805;28;20048;-79
2021/11/20 05:02:54;;;;;;;23.13;14.85;;;8.80;99.90;;;;;;5054339;28;20031;-79
2021/11/20 05:05:24;;;;;;;23.90;14.10;;;8.90;99.90;;;;;;5052559;28;20049;-89
2021/11/20 05:07:50;;;;;;;25.67;13.88;;;8.90;99.90;;;;;;5055280;28;20014;-90
2021/11/20 05:10:16;;;;;;;25.80;14.02;;;8.90;99.90;;;;;;5053696;28;20029;-89
2021/11/20 05:12:43;;;;;;;23.38;12.63;;;8.80;99.90;;;;;;5055328;28;20021;-90
2021/11/20 05:15:11;;;;;;;25.05;13.70;;;8.90;99.90;;;;;;5054854;28;20467;-88
2021/11/20 05:17:37;;;;;;;25.10;13.88;;;8.90;99.90;;;;;;5054299;28;20532;-89
2021/11/20 05:20:05;;;;;;;17.70;11.40;;;8.90;99.90;;;;;;5055375;28;20021;-88
2021/11/20 05:22:30;;;;;;;21.27;12.73;;;9.00;99.90;;;;;;5054570;28;20410;-86
2021/11/20 05:24:56;;;;;;;19.00;12.32;;;9.00;99.90;;;;;;5054202;28;20074;-89
2021/11/20 05:27:22;;;;;;;21.83;11.98;;;9.10;99.90;;;;;;5055644;28;20028;-88
2021/11/20 05:32:15;;;;;;;17.80;12.07;;;9.00;99.90;;;;;;5054821;28;20017;-94
2021/11/20 05:34:40;;;;;;;20.77;13.02;;;9.10;99.90;;;;;;5054492;28;20028;-91
2021/11/20 05:37:06;;;;;;;16.17;10.68;;;9.00;99.90;;;;;;5051842;28;20404;-91
2021/11/20 05:39:32;;;;;;;16.42;10.88;;;9.10;99.90;;;;;;5052264;28;20481;-93
2021/11/20 05:41:59;;;;;;;20.13;10.60;;;9.20;99.90;;;;;;5054520;28;20035;-92
2021/11/20 05:44:25;;;;;;;11.77;9.43;;;9.30;99.90;;;;;;5055290;28;20120;-95
2021/11/20 05:46:58;;;;;;;16.20;10.07;;;9.50;99.90;;;;;;5054159;28;20029;-92
2021/11/20 05:49:24;;;;;;;16.95;9.88;;;9.50;99.90;;;;;;5053623;28;20017;-94
2021/11/20 05:51:50;;;;;;;15.02;9.98;;;9.50;99.90;;;;;;5054511;28;20025;-93
2021/11/20 05:54:16;;;;;;;16.13;10.60;;;9.40;99.90;;;;;;5054097;28;20025;-92
2021/11/20 05:56:42;;;;;;;16.02;10.20;;;9.50;99.90;;;;;;5053876;28;20025;-95
2021/11/20 05:59:08;;;;;;;12.25;9.10;;;9.40;99.90;;;;;;5054605;28;20052;-93
2021/11/20 06:01:34;;;;;;;12.82;8.40;;;9.50;99.90;;;;;;5054650;28;20126;-90
2021/11/20 06:04:00;;;;;;;12.90;9.20;;;9.50;99.90;;;;;;5055573;28;20463;-92
2021/11/20 06:06:26;;;;;;;12.50;8.20;;;9.50;99.90;;;;;;5055527;28;20099;-96
2021/11/20 06:08:52;;;;;;;10.10;7.97;;;9.50;99.90;;;;;;5055072;28;20364;-94
2021/11/20 06:11:19;;;;;;;10.40;7.82;;;9.50;99.90;;;;;;5054649;28;20029;-94
2021/11/20 06:13:45;;;;;;;9.02;7.07;;;9.60;99.90;;;;;;5053688;28;20090;-96
2021/11/20 06:16:11;;;;;;;11.55;7.43;;;9.70;99.90;;;;;;5055295;28;20021;-92
2021/11/20 06:18:36;;;;;;;11.02;7.10;;;9.80;99.90;;;;;;5056785;28;20025;-95
2021/11/20 06:21:04;;;;;;;12.23;7.03;;;9.80;99.90;;;;;;5054576;28;20025;-95
2021/11/20 06:23:32;;;;;;;10.05;7.55;;;9.80;99.90;;;;;;5056800;28;20028;-95
2021/11/20 06:25:58;;;;;;;10.10;7.38;;;9.70;99.90;;;;;;5055809;28;20075;-93
2021/11/20 06:28:24;;;;;;;11.75;7.97;;;9.70;99.90;;;;;;5054714;28;20031;-96
2021/11/20 06:30:50;;;;;;;10.63;8.68;;;9.70;99.90;;;;;;5056419;28;20025;-96
2021/11/20 06:33:17;;;;;;;10.55;7.72;;;9.70;99.90;;;;;;5056121;28;20021;-95
2021/11/20 06:35:43;;;;;;;11.10;7.97;;;9.80;99.90;;;;;;5056613;28;20021;-94
2021/11/20 06:38:09;;;;;;;9.82;7.38;;;9.80;99.90;;;;;;5054536;28;20025;-94
2021/11/20 06:40:38;;;;;;;12.00;7.90;;;9.90;99.90;;;;;;5055168;28;20025;-92
2021/11/20 06:43:07;;;;;;;7.60;6.17;;;9.90;99.90;;;;;;5058973;28;20083;-95
2021/11/20 06:45:38;;;;;;;8.38;5.68;;;10.00;99.90;;;;;;5056993;28;20021;-94
2021/11/20 06:48:06;;;;;;;8.70;5.72;;;10.00;99.90;;;;;;5056254;28;20041;-96
2021/11/20 06:50:34;;;;;;;7.80;5.68;;;10.00;99.90;;;;;;5060208;28;20029;-95
2021/11/20 06:53:03;;;;;;;9.13;5.60;;;10.10;99.90;;;;;;5059754;28;20463;-93
2021/11/20 06:55:30;;;;;;;8.07;5.53;;;10.20;99.90;;;;;;5059212;28;20051;-95
2021/11/20 06:58:08;;;;;;;11.15;5.80;;;10.20;99.90;;;;;;5058366;28;20032;-95
2021/11/20 07:00:36;;;;;;;13.70;7.72;;;10.20;99.90;;;;;;5059155;28;20050;-95
2021/11/20 07:03:18;;;;;;;6.65;4.70;;;10.20;99.90;;;;;;5059176;28;20029;-91
2021/11/20 07:05:50;;;;;;;7.95;5.85;;;10.30;99.90;;;;;;5058679;28;20407;-94
2021/11/20 07:08:18;;;;;;;7.60;5.32;;;10.30;99.90;;;;;;5058597;28;20025;-95
2021/11/20 07:10:44;;;;;;;8.68;4.53;;;10.40;99.90;;;;;;5059843;28;20108;-93
2021/11/20 07:13:12;;;;;;;6.63;4.85;;;10.40;99.90;;;;;;5058976;28;20024;-96
2021/11/20 07:15:39;;;;;;;6.60;4.95;;;10.50;99.90;;;;;;5058559;28;20079;-92
2021/11/20 07:18:05;;;;;;;7.47;4.55;;;10.50;99.90;;;;;;5061726;28;20025;-96
2021/11/20 07:20:34;;;;;;;5.95;4.50;;;10.40;99.90;;;;;;5059117;28;20029;-92
2021/11/20 07:23:01;;;;;;;9.35;4.47;;;10.50;99.90;;;;;;5058554;28;20086;-94
2021/11/20 07:25:29;;;;;;;9.10;5.13;;;10.70;99.90;;;;;;5063249;28;20074;-94
2021/11/20 07:27:56;;;;;;;10.52;5.85;;;10.60;99.90;;;;;;5061254;28;20025;-96
2021/11/20 07:30:23;;;;;;;7.78;4.88;;;10.60;99.90;;;;;;5058820;28;20025;-91
2021/11/20 07:32:51;;;;;;;10.55;6.13;;;10.70;99.90;;;;;;5059371;28;20017;-95
2021/11/20 07:35:45;;;;;;;7.80;5.38;;;10.70;99.90;;;;;;5059470;28;20025;-95
2021/11/20 07:38:14;;;;;;;13.38;6.22;;;10.90;99.90;;;;;;5057985;28;20039;-95
2021/11/20 07:40:42;;;;;;;11.30;6.53;;;10.90;99.90;;;;;;5044213;28;20439;-96
2021/11/20 07:43:10;;;;;;;8.48;5.40;;;11.00;99.90;;;;;;5061341;28;20089;-95
2021/11/20 07:45:37;;;;;;;8.88;5.50;;;11.00;99.90;;;;;;5060674;28;20024;-94
2021/11/20 07:48:05;;;;;;;9.02;5.60;;;11.00;99.90;;;;;;5059448;28;20017;-96
2021/11/20 07:50:31;;;;;;;8.82;4.97;;;11.00;99.90;;;;;;5061646;28;20021;-95
2021/11/20 07:52:57;;;;;;;7.68;5.13;;;11.00;99.90;;;;;;5060436;28;20487;-95
2021/11/20 07:55:23;;;;;;;7.20;4.30;;;11.00;99.90;;;;;;5062577;28;20033;-96
2021/11/20 07:57:49;;;;;;;7.80;4.47;;;11.00;99.90;;;;;;5058530;28;20036;-95
2021/11/20 08:00:18;;;;;;;9.90;5.22;;;11.00;99.90;;;;;;5058986;28;20036;-96
2021/11/20 08:02:44;;;;;;;8.43;4.82;;;11.00;99.90;;;;;;5058412;28;20029;-96
2021/11/20 08:05:10;;;;;;;9.88;4.85;;;11.10;99.90;;;;;;5059689;28;20045;-96
2021/11/20 08:07:37;;;;;;;7.40;4.32;;;11.10;99.90;;;;;;5061945;28;20043;-93
2021/11/20 08:10:10;;;;;;;12.20;4.85;;;11.20;99.90;;;;;;5057267;28;20036;-93
2021/11/20 08:12:35;;;;;;;7.60;4.40;;;11.20;99.90;;;;;;5062035;28;20032;-96
2021/11/20 08:15:03;;;;;;;8.20;4.45;;;11.30;99.90;;;;;;5062673;28;20476;-96
2021/11/20 08:17:29;;;;;;;6.72;4.13;;;11.30;99.90;;;;;;5058636;28;20020;-94
2021/11/20 08:19:54;;;;;;;5.35;3.60;;;11.40;99.90;;;;;;5058039;28;20028;-95
2021/11/20 08:22:20;;;;;;;7.75;4.35;;;11.40;99.90;;;;;;5058355;28;20031;-89
2021/11/20 08:24:46;;;;;;;7.40;3.88;;;11.50;99.90;;;;;;5055998;28;20064;-91
2021/11/20 08:27:12;;;;;;;7.05;3.78;;;11.50;99.90;;;;;;5056240;28;20083;-92
2021/11/20 08:29:39;;;;;;;8.00;3.42;;;11.50;99.90;;;;;;5056251;28;20025;-94
2021/11/20 08:32:07;;;;;;;8.02;3.70;;;11.50;99.90;;;;;;5056488;28;20021;-94
2021/11/20 08:34:34;;;;;;;6.40;3.63;;;11.60;99.90;;;;;;5054848;28;20104;-91
2021/11/20 08:37:00;;;;;;;9.45;3.80;;;11.60;99.90;;;;;;5055126;28;20071;-88
2021/11/20 08:39:27;;;;;;;7.68;3.20;;;11.70;99.90;;;;;;5055686;28;20081;-91
2021/11/20 08:41:53;;;;;;;5.82;3.47;;;11.70;99.90;;;;;;5055849;28;20471;-90
2021/11/20 08:44:20;;;;;;;11.45;4.00;;;11.70;99.90;;;;;;5054843;28;20032;-88
2021/11/20 08:46:46;;;;;;;7.80;3.75;;;11.60;99.90;;;;;;5054830;28;20063;-90
2021/11/20 08:49:14;;;;;;;7.25;3.50;;;11.60;99.90;;;;;;5055300;28;20064;-93
2021/11/20 08:51:40;;;;;;;8.02;3.67;;;11.50;99.90;;;;;;5054350;28;20055;-90
2021/11/20 08:54:06;;;;;;;10.40;4.28;;;11.50;99.90;;;;;;5054735;28;20032;-93
2021/11/20 08:56:34;;;;;;;8.57;3.97;;;11.70;99.90;;;;;;5054208;28;20163;-93
2021/11/20 08:59:00;;;;;;;15.00;5.05;;;11.90;99.90;;;;;;5054286;28;20082;-93
2021/11/20 09:01:33;;;;;;;8.27;3.45;;;11.90;99.90;;;;;;5057930;28;20021;-90
2021/11/20 09:04:07;;;;;;;8.27;3.25;;;11.80;99.90;;;;;;5054499;28;20479;-94
2021/11/20 09:06:42;;;;;;;6.80;3.03;;;11.80;99.90;;;;;;5054050;28;20139;-92
2021/11/20 09:09:21;;;;;;;8.90;3.50;;;11.90;99.90;;;;;;5054491;28;20108;-92
2021/11/20 09:12:00;;;;;;;11.35;3.47;;;12.00;99.90;;;;;;5055666;28;20025;-94
2021/11/20 09:14:47;;;;;;;7.18;4.10;;;12.10;99.90;;;;;;5054851;28;20021;-94
2021/11/20 09:17:15;;;;;;;7.30;3.35;;;12.10;99.90;;;;;;5054575;28;20025;-89
2021/11/20 09:19:42;;;;;;;6.75;3.30;;;12.10;99.90;;;;;;5054191;28;20029;-93
2021/11/20 09:22:09;;;;;;;5.60;3.50;;;12.00;99.90;;;;;;5054479;28;20049;-94
2021/11/20 09:24:39;;;;;;;9.45;3.83;;;12.00;99.90;;;;;;5054558;28;20036;-94
2021/11/20 09:27:06;;;;;;;6.77;3.20;;;11.90;99.90;;;;;;5054169;28;20033;-94
2021/11/20 09:29:32;;;;;;;6.53;3.20;;;11.80;99.90;;;;;;5053585;28;20342;-91
2021/11/20 09:31:59;;;;;;;9.38;3.92;;;11.80;99.90;;;;;;5053724;28;20461;-91
2021/11/20 09:34:24;;;;;;;7.38;3.70;;;11.80;99.90;;;;;;5053763;28;20048;-89
2021/11/20 09:36:56;;;;;;;8.15;3.35;;;11.80;99.90;;;;;;5053973;28;20060;-92
2021/11/20 09:39:29;;;;;;;10.35;3.85;;;11.90;99.90;;;;;;5053977;28;20052;-92
2021/11/20 09:42:21;;;;;;;7.95;3.85;;;12.00;99.90;;;;;;5053608;28;20025;-93
2021/11/20 09:44:51;;;;;;;13.18;3.20;;;12.00;99.90;;;;;;5054221;28;20502;-92
2021/11/20 09:47:28;;;;;;;7.07;3.42;;;11.90;99.90;;;;;;5053481;28;20057;-90
2021/11/20 09:50:00;;;;;;;8.60;3.58;;;11.80;99.90;;;;;;5053530;28;20025;-92
2021/11/20 09:52:26;;;;;;;9.60;3.95;;;11.90;99.90;;;;;;5053721;28;20450;-93
2021/11/20 09:54:53;;;;;;;10.40;4.00;;;11.90;99.90;;;;;;5053657;28;20052;-92
2021/11/20 09:57:42;;;;;;;12.80;4.43;;;11.90;99.90;;;;;;5053820;28;20029;-95
2021/11/20 10:00:44;;;;;;;7.47;3.50;;;11.90;99.90;;;;;;5053646;28;20115;-91
2021/11/20 10:03:25;;;;;;;10.82;5.10;;;11.90;99.90;;;;;;5053576;28;20056;-94
2021/11/20 10:06:00;;;;;;;;;;;11.90;99.90;;;;;;5053554;28;20045;-93
2021/11/20 10:08:27;;;;;;;9.57;4.13;;;12.00;99.90;;;;;;5052868;28;19955;-91
2021/11/20 10:11:14;;;;;;;8.77;3.85;;;12.00;99.90;;;;;;5053254;28;20475;-91
2021/11/20 10:14:08;;;;;;;11.95;4.32;;;12.00;99.90;;;;;;5053254;28;20475;-91
2021/11/20 10:16:45;;;;;;;13.20;4.03;;;12.00;99.90;;;;;;5053183;28;20067;-89
2021/11/20 10:19:18;;;;;;;8.07;3.53;;;11.90;99.90;;;;;;5053332;28;20067;-93
2021/11/20 10:22:11;;;;;;;10.32;3.90;;;11.90;99.90;;;;;;5053999;28;20035;-90
2021/11/20 10:25:29;;;;;;;18.23;6.60;;;12.10;99.90;;;;;;5057280;28;20033;-91
2021/11/20 10:28:33;;;;;;;10.93;4.85;;;12.30;99.90;;;;;;5033301;28;20037;-92
2021/11/20 10:31:15;;;;;;;7.80;3.80;;;12.20;99.90;;;;;;5047219;28;20134;-92
2021/11/20 10:33:45;;;;;;;12.20;4.95;;;12.10;99.90;;;;;;5057286;28;20074;-92
2021/11/20 10:36:17;;;;;;;9.57;3.70;;;11.90;99.90;;;;;;5057485;28;20021;-91
2021/11/20 10:38:53;;;;;;;9.57;4.22;;;11.80;99.90;;;;;;5062024;28;20116;-90
2021/11/20 10:41:25;;;;;;;20.60;11.75;;;11.90;99.90;;;;;;5057132;28;20021;-89
2021/11/20 10:44:27;;;;;;;11.63;4.53;;;11.90;99.90;;;;;;5057692;28;20021;-90
2021/11/20 10:46:56;;;;;;;15.65;9.80;;;12.00;99.90;;;;;;5057143;28;20032;-90
2021/11/20 10:49:30;;;;;;;10.63;5.03;;;12.10;99.90;;;;;;5056990;28;20048;-91
2021/11/20 10:52:06;;;;;;;9.63;3.65;;;12.10;99.90;;;;;;5057431;28;20025;-92
2021/11/20 10:54:53;;;;;;;11.57;4.13;;;12.10;99.90;;;;;;5057212;28;20033;-96
2021/11/20 10:57:56;;;;;;;11.35;4.30;;;12.00;99.90;;;;;;5058293;28;20025;-93
2021/11/20 11:00:31;;;;;;;15.27;4.55;;;12.00;99.90;;;;;;5056890;28;20132;-91
2021/11/20 11:03:24;;;;;;;9.23;3.88;;;11.90;99.90;;;;;;5057263;28;20031;-92
2021/11/20 11:06:27;;;;;;;11.38;4.03;;;11.90;99.90;;;;;;5056456;28;20049;-93
2021/11/20 11:09:01;;;;;;;11.45;4.75;;;12.10;99.90;;;;;;5058217;28;20028;-90
2021/11/20 11:11:35;;;;;;;12.77;5.63;;;12.20;99.60;;;;;;5057191;28;20021;-90
2021/11/20 11:14:10;;;;;;;11.18;4.30;;;12.10;99.50;;;;;;5057812;28;20028;-96
2021/11/20 11:16:44;;;;;;;14.23;4.05;;;12.10;99.20;;;;;;5056959;28;20027;-89
2021/11/20 11:19:42;;;;;;;9.52;3.33;;;12.20;99.00;;;;;;5056794;28;20025;-91
2021/11/20 11:22:23;;;;;;;12.23;3.78;;;12.20;99.10;;;;;;5056632;28;20406;-90
2021/11/20 11:25:09;;;;;;;7.68;3.10;;;12.20;99.00;;;;;;5056131;28;20028;-90
2021/11/20 11:28:07;;;;;;;8.93;3.20;;;12.20;98.40;;;;;;5056131;28;20025;-93
2021/11/20 11:30:50;;;;;;;7.32;3.85;;;12.10;98.50;;;;;;5057244;28;20052;-93
2021/11/20 11:33:17;;;;;;;9.52;2.83;;;12.00;98.40;;;;;;5055929;28;20421;-93
2021/11/20 11:35:57;;;;;;;11.27;3.53;;;11.90;98.00;;;;;;5055838;28;20028;-91
2021/11/20 11:38:54;;;;;;;12.13;5.00;;;12.00;97.60;;;;;;5056374;28;20054;-91
2021/11/20 11:41:33;;;;;;;9.35;3.50;;;12.00;97.30;;;;;;5055853;28;20082;-94
2021/11/20 11:44:08;;;;;;;17.27;3.72;;;12.00;96.40;;;;;;5055939;28;20048;-93
2021/11/20 11:46:54;;;;;;;10.35;3.33;;;12.00;95.80;;;;;;5055956;28;20044;-93
2021/11/20 11:50:18;;;;;;;7.30;2.60;;;12.00;95.60;;;;;;5055755;28;20021;-92
2021/11/20 11:53:11;;;;;;;8.73;2.92;;;11.90;95.30;;;;;;5018999;28;20018;-95
2021/11/20 11:55:45;;;;;;;10.85;3.10;;;11.80;94.90;;;;;;5018470;28;20021;-90
2021/11/20 11:58:27;;;;;;;11.88;3.65;;;11.80;95.00;;;;;;5049378;28;20033;-94
2021/11/20 12:00:53;;;;;;;11.90;3.53;;;11.90;94.50;;;;;;5056444;28;20498;-93
2021/11/20 12:03:28;;;;;;;19.45;5.82;;;11.90;94.40;;;;;;5055212;28;20025;-89
2021/11/20 12:06:03;;;;;;;25.48;5.57;;;11.80;94.70;;;;;;5054772;28;20104;-89
2021/11/20 12:08:29;;;;;;;9.35;3.40;;;11.70;94.30;;;;;;5055474;28;20078;-91
2021/11/20 12:11:29;;;;;;;9.70;3.78;;;11.70;95.10;;;;;;5055266;28;20033;-90
2021/11/20 12:14:13;;;;;;;9.63;4.33;;;11.70;96.10;;;;;;5055490;28;20023;-92
2021/11/20 12:16:59;;;;;;;9.55;3.92;;;11.70;96.20;;;;;;5055325;28;20316;-90
2021/11/20 12:19:37;;;;;;;13.60;3.72;;;11.70;96.30;;;;;;5055376;28;20115;-93
2021/11/20 12:22:11;;;;;;;10.07;3.25;;;11.80;96.10;;;;;;5055422;28;20479;-91
2021/11/20 12:24:49;;;;;;;11.95;3.30;;;11.70;95.90;;;;;;5056889;28;20021;-90
2021/11/20 12:27:59;;;;;;;9.15;3.35;;;11.80;95.50;;;;;;5057793;28;20040;-95
2021/11/20 12:30:31;;;;;;;8.93;3.10;;;11.70;95.50;;;;;;5056604;28;20040;-96
2021/11/20 12:33:06;;;;;;;13.25;3.38;;;11.70;94.70;;;;;;5055357;28;20025;-92
2021/11/20 12:35:53;;;;;;;10.45;3.00;;;11.70;94.70;;;;;;5055194;28;20025;-92
2021/11/20 12:39:05;;;;;;;9.95;3.03;;;11.60;94.00;;;;;;5055099;28;20430;-92
2021/11/20 12:41:56;;;;;;;13.05;3.38;;;11.50;94.00;;;;;;5055880;28;20037;-92
2021/11/20 12:44:45;;;;;;;8.98;2.92;;;11.50;92.40;;;;;;5054710;28;20029;-91
2021/11/20 12:47:20;;;;;;;12.20;4.35;;;11.40;92.90;;;;;;5053727;28;20029;-92
2021/11/20 12:50:24;;;;;;;12.07;3.67;;;11.30;93.70;;;;;;5054619;28;20463;-92
2021/11/20 12:52:57;;;;;;;10.75;4.13;;;11.30;94.10;;;;;;5054506;28;20021;-94
2021/11/20 12:55:51;;;;;;;9.05;3.40;;;11.30;94.30;;;;;;5054628;28;20066;-92
2021/11/20 12:58:29;;;;;;;9.50;4.47;;;11.40;94.20;;;;;;5054412;28;20017;-93
2021/11/20 13:00:55;;;;;;;13.80;4.13;;;11.30;94.80;;;;;;5056398;28;20017;-95
2021/11/20 13:03:36;;;;;;;16.17;4.75;;;11.30;94.70;;;;;;5055514;28;20021;-89
2021/11/20 13:06:27;;;;;;;10.55;3.22;;;11.30;94.60;;;;;;5055312;28;20052;-92
2021/11/20 13:08:59;;;;;;;14.43;4.45;;;11.40;93.10;;;;;;5054091;28;20028;-91